Time;durP1;ratioP1;P1;durP2;ratioP2;P2;SDS_P1;SDS_P2;PMS_P1;PMS_P2;Temp;Humidity;BMP_temperature;BMP_pressure;BME280_temperature;BME280_humidity;BME280_pressure;Samples;Min_cycle;Max_cycle;Signal;HPM_P1;HPM_P2
2022/04/28 00:01:04;;;;;;;5.53;5.00;;;6.40;91.20;;;;;;5111478;28;20537;-65
2022/04/28 00:03:30;;;;;;;11.40;5.70;;;6.40;91.20;;;;;;5113141;28;20657;-64
2022/04/28 00:05:57;;;;;;;8.50;5.30;;;6.30;91.10;;;;;;5112702;28;20399;-64
2022/04/28 00:08:23;;;;;;;5.40;4.77;;;6.30;91.10;;;;;;5112895;28;20398;-65
2022/04/28 00:10:49;;;;;;;19.33;6.13;;;6.20;91.50;;;;;;5112561;28;20402;-64
2022/04/28 00:13:15;;;;;;;7.07;6.30;;;6.10;93.00;;;;;;5112878;28;20430;-67
2022/04/28 00:15:41;;;;;;;6.37;5.00;;;6.10;93.30;;;;;;5112305;28;20387;-63
2022/04/28 00:18:07;;;;;;;8.80;6.20;;;6.10;94.40;;;;;;5112838;28;20510;-65
2022/04/28 00:20:33;;;;;;;5.07;4.67;;;6.00;96.00;;;;;;5093927;28;20970;-64
2022/04/28 00:22:58;;;;;;;5.30;4.80;;;5.90;95.30;;;;;;5112745;28;20970;-64
2022/04/28 00:25:24;;;;;;;7.67;5.10;;;5.80;97.30;;;;;;5113266;28;20621;-68
2022/04/28 00:27:50;;;;;;;6.10;5.50;;;5.80;98.90;;;;;;5112752;28;20169;-64
2022/04/28 00:30:16;;;;;;;6.00;4.90;;;5.80;99.90;;;;;;5110660;28;20199;-67
2022/04/28 00:32:42;;;;;;;5.73;4.90;;;5.80;99.90;;;;;;5109700;28;20430;-70
2022/04/28 00:35:08;;;;;;;6.07;5.47;;;5.80;99.90;;;;;;5112508;28;20244;-67
2022/04/28 00:37:34;;;;;;;6.93;6.23;;;5.80;99.90;;;;;;5112830;28;20350;-66
2022/04/28 00:39:59;;;;;;;6.23;5.17;;;5.70;99.90;;;;;;5112130;28;20403;-66
2022/04/28 00:42:25;;;;;;;10.87;5.33;;;5.70;99.90;;;;;;5112471;28;20519;-68
2022/04/28 00:44:51;;;;;;;10.50;5.47;;;5.70;99.90;;;;;;5115787;28;20169;-68
2022/04/28 00:47:16;;;;;;;7.33;5.40;;;5.80;99.90;;;;;;5116344;28;20195;-66
2022/04/28 00:52:29;;;;;;;7.33;5.73;;;5.70;99.90;;;;;;5115824;28;20227;-67
2022/04/28 00:54:56;;;;;;;8.90;6.50;;;5.70;99.90;;;;;;5114752;28;20411;-66
2022/04/28 00:57:22;;;;;;;7.17;5.67;;;5.70;99.90;;;;;;5116349;28;20440;-64
2022/04/28 00:59:49;;;;;;;6.57;5.93;;;5.70;99.90;;;;;;5115611;28;20403;-64
2022/04/28 01:02:17;;;;;;;6.00;5.50;;;5.70;99.90;;;;;;5115871;28;20458;-67
2022/04/28 01:04:44;;;;;;;6.90;5.47;;;5.70;99.90;;;;;;5116352;28;20402;-66
2022/04/28 01:07:10;;;;;;;10.80;6.00;;;5.70;99.90;;;;;;5116041;28;20425;-64
2022/04/28 01:09:37;;;;;;;17.80;5.57;;;5.70;99.90;;;;;;5115418;28;20405;-68
2022/04/28 01:12:10;;;;;;;10.40;6.50;;;5.70;99.90;;;;;;5115931;28;20435;-68
2022/04/28 01:14:36;;;;;;;8.20;5.90;;;5.70;99.90;;;;;;5115276;28;20399;-68
2022/04/28 01:17:02;;;;;;;12.13;5.60;;;5.70;99.90;;;;;;5115910;28;20849;-65
2022/04/28 01:19:28;;;;;;;6.17;5.57;;;5.70;99.90;;;;;;5115205;28;20175;-64
2022/04/28 01:21:55;;;;;;;6.90;5.77;;;5.70;99.90;;;;;;5115655;28;20548;-64
2022/04/28 01:24:20;;;;;;;12.67;6.77;;;5.70;99.90;;;;;;5115970;28;20161;-68
2022/04/28 01:26:48;;;;;;;12.93;6.27;;;5.70;99.90;;;;;;5115651;28;20424;-64
2022/04/28 01:29:13;;;;;;;7.37;6.63;;;5.70;99.90;;;;;;5114842;28;20615;-65
2022/04/28 01:31:39;;;;;;;13.03;6.73;;;5.70;99.90;;;;;;5102537;28;20492;-68
2022/04/28 01:34:05;;;;;;;8.67;6.07;;;5.70;99.90;;;;;;5115812;28;20272;-64
2022/04/28 01:36:31;;;;;;;9.83;6.40;;;5.70;99.90;;;;;;5095334;28;20240;-65
2022/04/28 01:38:57;;;;;;;7.57;5.67;;;5.70;99.90;;;;;;5095404;28;20173;-65
2022/04/28 01:41:23;;;;;;;8.57;5.90;;;5.70;99.90;;;;;;5115586;28;20499;-66
2022/04/28 01:43:49;;;;;;;11.60;7.30;;;5.70;99.90;;;;;;5115279;28;20169;-67
2022/04/28 01:46:15;;;;;;;17.00;8.20;;;5.70;99.90;;;;;;5115683;28;20391;-66
2022/04/28 01:48:40;;;;;;;10.33;5.97;;;5.70;99.90;;;;;;5113627;28;20180;-67
2022/04/28 01:56:34;;;;;;;7.00;5.60;;;5.60;99.90;;;;;;5115017;28;20914;-67
2022/04/28 01:59:00;;;;;;;9.23;6.20;;;5.60;99.90;;;;;;5113721;28;20513;-67
2022/04/28 02:01:25;;;;;;;10.70;6.70;;;5.50;99.90;;;;;;5115189;28;20216;-64
2022/04/28 02:03:51;;;;;;;8.03;5.70;;;5.50;99.90;;;;;;5115228;28;20553;-64
2022/04/28 02:06:17;;;;;;;10.20;6.20;;;5.50;99.90;;;;;;5114949;28;20303;-66
2022/04/28 02:08:45;;;;;;;7.50;5.63;;;5.50;99.90;;;;;;5113374;28;20219;-67
2022/04/28 02:11:10;;;;;;;16.53;6.00;;;5.50;99.90;;;;;;5114523;28;20684;-65
2022/04/28 02:13:36;;;;;;;14.87;6.30;;;5.50;99.90;;;;;;5114513;28;20442;-68
2022/04/28 02:16:02;;;;;;;6.40;5.83;;;5.50;99.90;;;;;;5114851;28;20446;-68
2022/04/28 02:18:27;;;;;;;8.10;6.17;;;5.40;99.90;;;;;;5114689;28;20618;-71
2022/04/28 02:20:53;;;;;;;10.17;6.97;;;5.40;99.90;;;;;;5114007;28;20222;-68
2022/04/28 02:23:19;;;;;;;6.73;5.63;;;5.40;99.90;;;;;;5114489;28;20253;-67
2022/04/28 02:25:44;;;;;;;8.83;6.50;;;5.40;99.90;;;;;;5113855;28;20219;-66
2022/04/28 02:28:10;;;;;;;6.20;5.53;;;5.40;99.90;;;;;;5114880;28;20568;-64
2022/04/28 02:30:35;;;;;;;9.10;6.40;;;5.30;99.90;;;;;;5113544;28;20208;-67
2022/04/28 02:33:10;;;;;;;9.10;6.93;;;5.30;99.90;;;;;;5114609;28;20671;-65
2022/04/28 02:35:37;;;;;;;10.30;6.73;;;5.40;99.90;;;;;;5114268;28;20641;-65
2022/04/28 02:38:03;;;;;;;7.60;6.67;;;5.40;99.90;;;;;;5114812;28;20482;-65
2022/04/28 02:40:29;;;;;;;9.93;6.90;;;5.40;99.90;;;;;;5113360;28;20406;-64
2022/04/28 02:42:55;;;;;;;10.40;6.40;;;5.50;99.90;;;;;;5114329;28;20454;-64
2022/04/28 02:45:21;;;;;;;12.43;6.37;;;5.50;99.90;;;;;;5113098;28;20426;-65
2022/04/28 02:47:46;;;;;;;10.57;6.33;;;5.50;99.90;;;;;;5114338;28;20171;-64
2022/04/28 02:50:12;;;;;;;7.23;6.40;;;5.50;99.90;;;;;;5113255;28;20164;-65
2022/04/28 02:52:39;;;;;;;17.30;7.37;;;5.50;99.90;;;;;;5113860;28;20201;-65
2022/04/28 02:55:05;;;;;;;17.70;7.70;;;5.50;99.90;;;;;;5113999;28;20184;-64
2022/04/28 02:57:31;;;;;;;10.83;6.20;;;5.50;99.90;;;;;;5114194;28;20911;-64
2022/04/28 02:59:57;;;;;;;12.63;8.00;;;5.50;99.90;;;;;;5113044;28;20423;-64
2022/04/28 03:02:23;;;;;;;11.00;8.23;;;5.50;99.90;;;;;;5113314;28;20272;-68
2022/04/28 03:04:49;;;;;;;8.87;6.77;;;5.50;99.90;;;;;;5113527;28;20501;-63
2022/04/28 03:12:44;;;;;;;9.13;7.00;;;5.50;99.90;;;;;;5093656;28;20830;-67
2022/04/28 03:15:10;;;;;;;10.33;6.77;;;5.50;99.90;;;;;;5093497;28;20409;-64
2022/04/28 03:17:36;;;;;;;7.93;7.13;;;5.50;99.90;;;;;;5112608;28;20517;-66
2022/04/28 03:20:03;;;;;;;9.87;7.20;;;5.50;99.90;;;;;;5109999;28;20433;-66
2022/04/28 03:22:29;;;;;;;14.40;9.10;;;5.50;99.90;;;;;;5113506;28;20625;-65
2022/04/28 03:24:55;;;;;;;8.57;6.80;;;5.50;99.90;;;;;;5112584;28;20771;-65
2022/04/28 03:27:21;;;;;;;8.30;6.23;;;5.50;99.90;;;;;;5113904;28;20399;-65
2022/04/28 03:29:46;;;;;;;14.30;8.43;;;5.40;99.90;;;;;;5112475;28;20169;-67
2022/04/28 03:32:12;;;;;;;10.27;7.40;;;5.40;99.90;;;;;;5113614;28;20192;-68
2022/04/28 03:34:37;;;;;;;9.47;7.50;;;5.40;99.90;;;;;;5113657;28;20533;-63
2022/04/28 03:37:03;;;;;;;8.73;7.90;;;5.40;99.90;;;;;;5095446;28;20658;-66
2022/04/28 03:39:29;;;;;;;8.20;7.40;;;5.40;99.90;;;;;;5112757;28;20192;-64
2022/04/28 03:41:55;;;;;;;13.50;8.40;;;5.40;99.90;;;;;;5112190;28;21109;-64
2022/04/28 03:44:20;;;;;;;10.50;6.90;;;5.30;99.90;;;;;;5113550;28;20164;-68
2022/04/28 03:46:46;;;;;;;11.43;7.60;;;5.30;99.90;;;;;;5113341;28;20263;-64
2022/04/28 03:49:12;;;;;;;13.57;9.03;;;5.40;99.90;;;;;;5112613;28;20161;-63
2022/04/28 03:51:39;;;;;;;12.73;7.70;;;5.30;99.90;;;;;;5113021;28;20173;-64
2022/04/28 03:54:05;;;;;;;19.57;8.10;;;5.30;99.90;;;;;;5113433;28;20172;-66
2022/04/28 03:56:32;;;;;;;11.40;7.43;;;5.20;99.90;;;;;;5113163;28;20419;-67
2022/04/28 03:58:59;;;;;;;17.00;6.93;;;5.30;99.90;;;;;;5111441;28;20478;-64
2022/04/28 04:01:25;;;;;;;13.30;7.50;;;5.30;99.90;;;;;;5113014;28;20881;-64
2022/04/28 04:03:51;;;;;;;11.40;9.07;;;5.30;99.90;;;;;;5113268;28;20489;-67
2022/04/28 04:06:16;;;;;;;8.60;7.30;;;5.30;99.90;;;;;;5112946;28;20468;-65
2022/04/28 04:08:42;;;;;;;8.93;6.80;;;5.20;99.90;;;;;;5112547;28;20168;-64
2022/04/28 04:11:08;;;;;;;11.90;7.37;;;5.20;99.90;;;;;;5112989;28;20180;-63
2022/04/28 04:13:34;;;;;;;8.37;7.17;;;5.20;99.90;;;;;;5113157;28;20240;-68
2022/04/28 04:16:00;;;;;;;10.73;7.37;;;5.20;99.90;;;;;;5112538;28;20173;-67
2022/04/28 04:18:25;;;;;;;10.40;8.40;;;5.20;99.90;;;;;;5113955;27;20399;-67
2022/04/28 04:20:51;;;;;;;9.80;7.40;;;5.20;99.90;;;;;;5116250;28;20411;-65
2022/04/28 04:23:17;;;;;;;11.83;9.70;;;5.20;99.90;;;;;;5117038;28;20202;-67
2022/04/28 04:25:43;;;;;;;10.13;7.43;;;5.20;99.90;;;;;;5116913;28;20229;-63
2022/04/28 04:28:09;;;;;;;9.57;7.03;;;5.20;99.90;;;;;;5117080;28;20397;-64
2022/04/28 04:33:19;;;;;;;14.40;8.10;;;5.30;99.90;;;;;;5116923;28;20207;-66
2022/04/28 04:35:45;;;;;;;15.07;9.43;;;5.30;99.90;;;;;;5116725;28;20414;-64
2022/04/28 04:38:10;;;;;;;18.23;8.60;;;5.40;99.90;;;;;;5097649;28;20573;-66
2022/04/28 04:40:36;;;;;;;22.53;8.00;;;5.40;99.90;;;;;;5115722;28;20213;-64
2022/04/28 04:43:03;;;;;;;10.93;7.30;;;5.40;99.90;;;;;;5116619;28;20208;-65
2022/04/28 04:45:28;;;;;;;21.40;9.13;;;5.40;99.90;;;;;;5104949;28;20255;-63
2022/04/28 04:47:54;;;;;;;9.50;7.03;;;5.50;99.90;;;;;;5116796;28;20849;-64
2022/04/28 04:50:20;;;;;;;11.73;6.90;;;5.50;99.90;;;;;;5115437;28;20660;-65
2022/04/28 04:52:45;;;;;;;16.10;8.33;;;5.60;99.90;;;;;;5116730;28;20200;-62
2022/04/28 04:55:11;;;;;;;11.50;7.30;;;5.60;99.90;;;;;;5107821;28;20211;-64
2022/04/28 04:57:37;;;;;;;9.47;7.40;;;5.60;99.90;;;;;;5116357;28;20272;-64
2022/04/28 05:00:04;;;;;;;9.27;6.87;;;5.70;99.90;;;;;;5115433;28;20660;-64
2022/04/28 05:02:30;;;;;;;8.83;7.27;;;5.70;99.90;;;;;;5116213;28;20196;-65
2022/04/28 05:04:55;;;;;;;13.17;7.30;;;5.70;99.90;;;;;;5116171;28;20422;-67
2022/04/28 05:07:21;;;;;;;10.50;7.77;;;5.80;99.90;;;;;;5116509;28;20157;-65
2022/04/28 05:09:47;;;;;;;15.30;8.50;;;5.90;99.90;;;;;;5115124;28;20176;-62
2022/04/28 05:12:12;;;;;;;14.07;8.13;;;5.90;99.90;;;;;;5116175;28;20201;-64
2022/04/28 05:14:38;;;;;;;12.83;7.73;;;5.90;99.90;;;;;;5114425;28;20185;-61
2022/04/28 05:17:04;;;;;;;10.40;7.20;;;6.00;99.90;;;;;;5115724;28;20210;-65
2022/04/28 05:19:29;;;;;;;9.33;7.00;;;6.00;99.90;;;;;;5114969;28;20399;-65
2022/04/28 05:21:55;;;;;;;14.43;7.80;;;6.00;99.90;;;;;;5097355;28;20659;-62
2022/04/28 05:24:21;;;;;;;13.20;7.23;;;6.00;99.90;;;;;;5115710;28;20165;-66
2022/04/28 05:26:47;;;;;;;10.83;7.40;;;6.00;99.90;;;;;;5115255;28;20640;-62
2022/04/28 05:29:13;;;;;;;13.30;7.60;;;6.20;99.90;;;;;;5096543;28;20439;-64
2022/04/28 05:31:39;;;;;;;9.30;6.77;;;6.30;99.90;;;;;;5114996;28;20175;-67
2022/04/28 05:34:04;;;;;;;12.80;7.07;;;6.40;99.90;;;;;;5115356;28;20192;-66
2022/04/28 05:36:30;;;;;;;10.40;7.27;;;6.50;99.90;;;;;;5114644;28;20639;-65
2022/04/28 05:39:00;;;;;;;9.87;7.50;;;6.60;99.90;;;;;;5114454;28;20173;-64
2022/04/28 05:41:27;;;;;;;11.03;7.40;;;6.70;99.90;;;;;;5113113;28;20450;-66
2022/04/28 05:46:38;;;;;;;14.70;8.40;;;6.70;99.90;;;;;;5095726;28;20498;-66
2022/04/28 05:49:07;;;;;;;8.83;7.57;;;6.70;99.90;;;;;;5113768;27;20493;-66
2022/04/28 05:51:33;;;;;;;8.07;7.13;;;6.70;99.90;;;;;;5131051;27;20288;-68
2022/04/28 05:53:59;;;;;;;15.03;8.00;;;6.70;99.90;;;;;;5107352;28;20442;-68
2022/04/28 05:56:24;;;;;;;15.93;7.90;;;6.80;99.90;;;;;;5115319;28;20929;-62
2022/04/28 05:58:50;;;;;;;15.57;7.43;;;7.00;99.90;;;;;;5113895;28;20186;-68
2022/04/28 06:01:16;;;;;;;7.60;6.73;;;7.20;99.90;;;;;;5114250;28;20165;-67
2022/04/28 06:03:43;;;;;;;9.10;7.40;;;7.30;99.90;;;;;;5115188;28;20779;-67
2022/04/28 06:06:09;;;;;;;12.70;7.77;;;7.40;99.90;;;;;;5114972;28;20165;-66
2022/04/28 06:08:35;;;;;;;9.73;7.50;;;7.50;99.90;;;;;;5113660;28;20481;-65
2022/04/28 06:11:01;;;;;;;8.30;6.23;;;7.50;99.90;;;;;;5113831;28;20168;-62
2022/04/28 06:13:27;;;;;;;6.43;5.70;;;7.50;99.90;;;;;;5115107;28;20415;-67
2022/04/28 06:15:53;;;;;;;8.87;6.67;;;7.60;99.90;;;;;;5114739;28;20414;-63
2022/04/28 06:18:19;;;;;;;8.23;7.10;;;7.60;99.90;;;;;;5114937;28;20410;-67
2022/04/28 06:20:45;;;;;;;8.80;5.90;;;7.70;99.90;;;;;;5113620;28;20569;-67
2022/04/28 06:23:11;;;;;;;7.43;5.70;;;7.80;99.90;;;;;;5108660;28;20486;-68
2022/04/28 06:25:37;;;;;;;12.67;6.87;;;7.80;99.90;;;;;;5112225;27;20425;-67
2022/04/28 06:28:04;;;;;;;15.87;9.13;;;7.90;99.90;;;;;;5114015;28;20948;-63
2022/04/28 06:30:29;;;;;;;13.03;7.63;;;7.90;99.90;;;;;;5113544;28;20457;-66
2022/04/28 06:32:55;;;;;;;11.63;6.43;;;8.10;99.90;;;;;;5115195;28;20506;-68
2022/04/28 06:35:21;;;;;;;7.97;5.40;;;8.20;99.90;;;;;;5114041;28;20218;-63
2022/04/28 06:37:46;;;;;;;8.13;6.53;;;8.30;99.90;;;;;;5114576;28;20180;-63
2022/04/28 06:40:12;;;;;;;11.80;6.23;;;8.40;99.90;;;;;;5113211;28;20180;-67
2022/04/28 06:42:43;;;;;;;8.93;6.70;;;8.50;99.90;;;;;;5095771;28;20212;-67
2022/04/28 06:45:11;;;;;;;20.03;6.37;;;8.60;99.90;;;;;;5099518;28;20170;-63
2022/04/28 06:47:36;;;;;;;6.93;5.93;;;8.70;99.90;;;;;;5094067;28;20447;-64
2022/04/28 06:50:02;;;;;;;6.30;5.70;;;8.80;99.90;;;;;;5093168;28;20423;-67
2022/04/28 06:52:28;;;;;;;10.93;6.30;;;9.00;99.90;;;;;;5113923;28;20436;-67
2022/04/28 06:54:54;;;;;;;10.10;6.20;;;9.00;99.90;;;;;;5114034;28;20420;-65
2022/04/28 06:57:20;;;;;;;20.60;7.27;;;9.10;99.90;;;;;;5113071;28;20194;-64
2022/04/28 06:59:45;;;;;;;8.40;6.67;;;9.10;99.90;;;;;;5102802;28;20177;-68
2022/04/28 07:02:11;;;;;;;8.40;6.10;;;9.10;99.90;;;;;;5114109;28;21036;-64
2022/04/28 07:04:37;;;;;;;9.97;7.03;;;9.20;99.90;;;;;;5112212;28;20175;-62
2022/04/28 07:07:03;;;;;;;6.63;5.90;;;9.30;99.90;;;;;;5114112;28;20694;-68
2022/04/28 07:09:28;;;;;;;7.00;4.97;;;9.40;99.90;;;;;;5082521;28;20636;-62
2022/04/28 07:11:54;;;;;;;7.60;6.13;;;9.50;99.90;;;;;;5113898;28;20421;-67
2022/04/28 07:14:20;;;;;;;16.13;5.90;;;9.60;99.90;;;;;;5111756;28;20206;-68
2022/04/28 07:16:45;;;;;;;7.70;5.73;;;9.70;99.90;;;;;;5075489;28;20184;-67
2022/04/28 07:19:11;;;;;;;7.73;5.43;;;9.80;99.90;;;;;;5104999;28;20270;-67
2022/04/28 07:21:37;;;;;;;7.83;5.50;;;9.90;99.90;;;;;;5112754;28;20606;-67
2022/04/28 07:24:03;;;;;;;6.17;4.80;;;10.10;99.90;;;;;;5112784;28;20169;-67
2022/04/28 07:26:29;;;;;;;8.03;4.90;;;10.20;99.90;;;;;;5113747;28;20455;-67
2022/04/28 07:28:55;;;;;;;9.23;4.80;;;10.30;99.90;;;;;;5102760;28;20175;-68
2022/04/28 07:31:20;;;;;;;6.27;5.03;;;10.30;99.90;;;;;;5113422;28;20410;-64
2022/04/28 07:33:46;;;;;;;6.43;4.90;;;10.40;99.90;;;;;;5112452;28;20618;-67
2022/04/28 07:36:12;;;;;;;14.23;5.70;;;10.40;99.90;;;;;;5113764;28;20730;-67
2022/04/28 07:38:39;;;;;;;16.70;5.83;;;10.40;99.90;;;;;;5111587;28;20161;-63
2022/04/28 07:41:05;;;;;;;7.90;5.73;;;10.40;99.90;;;;;;5112720;28;20410;-68
2022/04/28 07:43:31;;;;;;;6.97;4.67;;;10.50;99.90;;;;;;5112997;28;20483;-64
2022/04/28 07:45:56;;;;;;;7.27;5.23;;;10.60;99.90;;;;;;5113470;28;20399;-63
2022/04/28 07:48:22;;;;;;;6.63;4.20;;;10.70;99.90;;;;;;5113001;28;20665;-64
2022/04/28 07:50:48;;;;;;;5.80;4.47;;;10.80;99.90;;;;;;5112458;28;20196;-63
2022/04/28 07:53:14;;;;;;;5.57;4.47;;;10.90;99.90;;;;;;5109217;28;20196;-63
2022/04/28 07:55:39;;;;;;;7.57;4.10;;;11.10;99.90;;;;;;5114032;28;20187;-64
2022/04/28 07:58:05;;;;;;;5.13;4.53;;;11.10;99.90;;;;;;5116512;28;20922;-63
2022/04/28 08:00:32;;;;;;;7.20;4.83;;;11.10;99.90;;;;;;5115261;28;20195;-67
2022/04/28 08:02:58;;;;;;;10.60;5.40;;;11.20;99.90;;;;;;5117106;28;20536;-67
2022/04/28 08:05:24;;;;;;;10.53;5.23;;;11.30;99.90;;;;;;5117083;28;20893;-63
2022/04/28 08:07:49;;;;;;;5.90;4.30;;;11.30;99.90;;;;;;5117327;28;20477;-64
2022/04/28 08:10:15;;;;;;;5.90;4.63;;;11.40;99.90;;;;;;5116161;28;20173;-64
2022/04/28 08:12:40;;;;;;;6.37;4.87;;;11.50;99.90;;;;;;5117482;28;20184;-67
2022/04/28 08:15:07;;;;;;;7.53;4.93;;;11.50;99.90;;;;;;5100138;28;20177;-63
2022/04/28 08:17:33;;;;;;;8.33;4.60;;;11.60;99.90;;;;;;5096882;28;20276;-64
2022/04/28 08:19:59;;;;;;;6.57;4.90;;;11.70;99.90;;;;;;5110243;28;20757;-64
2022/04/28 08:22:25;;;;;;;6.20;5.07;;;11.80;99.90;;;;;;5116976;28;20627;-63
2022/04/28 08:24:50;;;;;;;5.60;5.00;;;11.80;99.90;;;;;;5116930;28;20176;-64
2022/04/28 08:27:16;;;;;;;7.30;5.33;;;11.90;99.90;;;;;;5117161;28;20568;-63
2022/04/28 08:29:42;;;;;;;7.90;5.73;;;12.10;99.90;;;;;;5115678;28;20225;-64
2022/04/28 08:32:09;;;;;;;5.57;5.00;;;12.30;99.90;;;;;;5114878;28;20208;-63
2022/04/28 08:34:36;;;;;;;10.13;6.20;;;12.50;99.90;;;;;;5115719;28;20176;-63
2022/04/28 08:37:02;;;;;;;8.80;5.40;;;12.70;99.90;;;;;;5116983;28;20903;-68
2022/04/28 08:39:27;;;;;;;11.03;5.57;;;12.80;99.90;;;;;;5115404;28;20381;-66
2022/04/28 08:41:55;;;;;;;8.97;5.10;;;13.10;99.90;;;;;;5115927;28;20831;-65
2022/04/28 08:44:26;;;;;;;9.70;5.67;;;13.30;99.90;;;;;;5115998;28;20697;-65
2022/04/28 08:46:54;;;;;;;7.30;5.20;;;13.40;99.90;;;;;;5116318;28;20430;-67
2022/04/28 08:49:24;;;;;;;7.20;5.50;;;13.50;99.90;;;;;;5115229;28;21002;-68
2022/04/28 08:51:52;;;;;;;12.40;6.03;;;13.40;99.90;;;;;;5114958;28;20957;-68
2022/04/28 08:54:18;;;;;;;6.87;6.03;;;13.30;99.90;;;;;;5114992;28;20397;-63
2022/04/28 08:56:44;;;;;;;12.23;6.10;;;13.50;99.90;;;;;;5115368;28;20418;-63
2022/04/28 08:59:10;;;;;;;8.83;6.37;;;13.60;99.20;;;;;;5114684;28;20884;-67
2022/04/28 09:01:36;;;;;;;6.27;5.63;;;13.60;93.30;;;;;;5115075;28;20223;-61
2022/04/28 09:04:04;;;;;;;8.83;7.13;;;13.90;93.50;;;;;;5116047;28;20165;-62
2022/04/28 09:06:35;;;;;;;11.30;5.70;;;13.90;93.50;;;;;;5116132;28;20396;-64
2022/04/28 09:09:20;;;;;;;7.03;5.80;;;14.00;93.50;;;;;;5115229;28;20450;-61
2022/04/28 09:11:47;;;;;;;5.97;5.33;;;14.20;93.60;;;;;;5115890;28;20822;-65
2022/04/28 09:14:15;;;;;;;8.23;5.23;;;14.20;93.60;;;;;;5116015;28;20869;-66
2022/04/28 09:17:00;;;;;;;11.43;6.10;;;14.50;93.70;;;;;;5114636;28;20393;-61
2022/04/28 09:19:34;;;;;;;6.90;5.67;;;14.80;93.70;;;;;;5114772;28;20373;-64
2022/04/28 09:22:13;;;;;;;5.40;4.90;;;15.10;92.70;;;;;;5115525;28;20518;-66
2022/04/28 09:24:43;;;;;;;6.67;5.97;;;15.40;94.00;;;;;;5113623;28;20397;-66
2022/04/28 09:27:09;;;;;;;7.17;6.37;;;15.40;78.50;;;;;;5115969;28;20493;-62
2022/04/28 09:29:39;;;;;;;9.37;6.23;;;15.60;72.20;;;;;;5112369;28;20513;-65
2022/04/28 09:32:13;;;;;;;10.30;5.37;;;15.70;71.50;;;;;;5114660;28;20197;-61
2022/04/28 09:34:49;;;;;;;7.03;6.03;;;15.80;61.90;;;;;;5115362;28;20497;-66
2022/04/28 09:37:18;;;;;;;9.20;6.00;;;15.90;54.50;;;;;;5106022;28;20510;-62
2022/04/28 09:42:39;;;;;;;6.70;6.00;;;17.10;54.90;;;;;;5102877;28;20459;-63
2022/04/28 09:45:06;;;;;;;6.93;6.13;;;17.50;55.50;;;;;;5098700;28;20795;-63
2022/04/28 09:47:32;;;;;;;6.43;5.20;;;17.90;49.20;;;;;;5095087;28;20737;-66
2022/04/28 09:49:58;;;;;;;6.70;5.20;;;18.40;51.70;;;;;;5093261;28;20420;-66
2022/04/28 09:52:24;;;;;;;6.50;4.77;;;18.80;43.70;;;;;;5107728;28;20448;-63
2022/04/28 09:54:51;;;;;;;8.60;5.73;;;19.00;34.70;;;;;;5095214;28;20522;-66
2022/04/28 09:57:18;;;;;;;8.40;6.23;;;19.10;32.60;;;;;;5100477;28;20196;-62
2022/04/28 09:59:45;;;;;;;8.37;5.67;;;19.30;28.50;;;;;;5111965;28;20399;-63
2022/04/28 10:02:15;;;;;;;8.07;5.93;;;19.20;25.90;;;;;;5106336;28;20450;-62
2022/04/28 10:04:42;;;;;;;6.10;5.50;;;19.30;28.00;;;;;;5114761;28;20410;-68
2022/04/28 10:07:09;;;;;;;11.50;6.63;;;19.40;25.40;;;;;;5105543;28;20431;-65
2022/04/28 10:09:39;;;;;;;9.10;5.30;;;19.50;17.30;;;;;;5114490;28;20427;-66
2022/04/28 10:12:06;;;;;;;7.13;5.13;;;19.80;21.60;;;;;;5113502;28;20442;-62
2022/04/28 10:14:35;;;;;;;13.60;6.20;;;20.10;18.70;;;;;;5114979;28;20402;-64
2022/04/28 10:17:02;;;;;;;9.37;6.17;;;20.20;7.60;;;;;;5113865;28;20436;-67
2022/04/28 10:19:38;;;;;;;9.80;4.90;;;20.10;2.20;;;;;;5113821;28;20423;-68
2022/04/28 10:22:17;;;;;;;10.13;5.73;;;19.70;1.00;;;;;;5113691;28;20458;-66
2022/04/28 10:33:14;;;;;;;8.20;5.27;;;20.80;4.00;;;;;;5113743;28;20865;-63
2022/04/28 10:35:46;;;;;;;8.50;5.47;;;21.20;1.00;;;;;;5114513;28;20501;-66
2022/04/28 10:38:30;;;;;;;9.50;5.83;;;21.50;1.00;;;;;;5114776;28;20891;-63
2022/04/28 10:41:10;;;;;;;5.83;5.27;;;21.80;1.00;;;;;;5113407;28;20503;-67
2022/04/28 10:43:40;;;;;;;6.57;4.80;;;22.10;1.00;;;;;;5113851;28;20458;-66
2022/04/28 10:46:08;;;;;;;8.87;5.43;;;21.30;1.00;;;;;;5114163;28;20934;-66
2022/04/28 10:48:38;;;;;;;10.07;5.80;;;20.50;1.00;;;;;;5113523;28;20402;-63
2022/04/28 10:51:26;;;;;;;6.30;5.50;;;20.50;1.00;;;;;;5110550;28;20422;-66
2022/04/28 10:54:10;;;;;;;7.27;6.37;;;20.10;1.00;;;;;;5114237;28;20398;-67
2022/04/28 10:56:42;;;;;;;6.23;5.63;;;19.70;1.00;;;;;;5113199;28;20516;-68
2022/04/28 10:59:47;;;;;;;7.70;6.50;;;20.30;1.00;;;;;;5113270;28;20406;-68
2022/04/28 11:02:16;;;;;;;11.53;7.20;;;21.10;1.00;;;;;;5005337;28;20478;-66
2022/04/28 11:04:44;;;;;;;8.30;6.30;;;20.80;1.00;;;;;;5080159;28;20416;-63
2022/04/28 11:07:15;;;;;;;9.90;6.70;;;19.90;1.00;;;;;;5110866;28;20468;-62
2022/04/28 11:09:44;;;;;;;12.50;7.37;;;19.60;1.00;;;;;;5113271;28;20426;-66
2022/04/28 11:12:11;;;;;;;10.97;6.90;;;18.90;1.00;;;;;;5113055;28;20462;-62
2022/04/28 11:14:48;;;;;;;12.50;6.90;;;18.20;1.00;;;;;;5113929;28;20413;-62
2022/04/28 11:17:16;;;;;;;8.30;7.20;;;17.90;1.00;;;;;;5113515;28;20471;-63
2022/04/28 11:19:44;;;;;;;9.40;6.90;;;17.80;1.00;;;;;;5112916;28;20409;-62
2022/04/28 11:22:13;;;;;;;7.70;6.40;;;18.80;1.00;;;;;;5112590;28;20909;-63
2022/04/28 11:24:46;;;;;;;11.10;6.63;;;19.70;1.00;;;;;;5111868;28;20495;-67
2022/04/28 11:27:19;;;;;;;9.00;6.90;;;19.70;1.00;;;;;;5085117;28;20427;-62
2022/04/28 11:29:46;;;;;;;8.47;7.37;;;19.30;1.00;;;;;;5092787;28;20416;-66
2022/04/28 11:32:14;;;;;;;9.30;6.63;;;19.00;1.00;;;;;;5106534;28;20526;-64
2022/04/28 11:34:42;;;;;;;11.40;6.93;;;19.70;1.00;;;;;;5097327;28;20510;-65
2022/04/28 11:37:24;;;;;;;9.60;6.47;;;20.90;1.00;;;;;;5093669;28;20972;-65
2022/04/28 11:39:55;;;;;;;8.53;7.63;;;21.00;1.00;;;;;;5073776;28;20408;-61
2022/04/28 11:42:24;;;;;;;7.40;6.57;;;20.30;1.00;;;;;;5097127;28;20465;-66
2022/04/28 11:44:53;;;;;;;7.40;5.93;;;20.40;1.00;;;;;;5105474;28;20793;-66
2022/04/28 11:47:19;;;;;;;11.43;6.53;;;21.20;1.00;;;;;;5093021;28;20946;-67
2022/04/28 11:49:45;;;;;;;5.77;4.90;;;22.00;1.00;;;;;;5092107;28;20819;-62
2022/04/28 11:52:34;;;;;;;4.40;3.80;;;22.80;1.00;;;;;;5093963;28;20439;-62
2022/04/28 11:55:06;;;;;;;4.53;4.10;;;23.60;1.00;;;;;;5094160;28;20432;-62
2022/04/28 11:57:32;;;;;;;4.07;3.67;;;23.90;1.00;;;;;;5111138;28;20504;-69
2022/04/28 11:59:58;;;;;;;5.97;4.10;;;24.00;1.00;;;;;;5110153;28;20493;-67
2022/04/28 12:02:33;;;;;;;6.87;5.03;;;23.90;1.00;;;;;;5093186;28;20555;-61
2022/04/28 12:05:02;;;;;;;5.35;4.00;;;24.10;1.00;;;;;;5097114;28;20394;-67
2022/04/28 12:07:34;;;;;;;5.00;4.32;;;24.00;1.00;;;;;;5092403;28;20405;-64
2022/04/28 12:15:31;;;;;;;3.50;3.20;;;24.20;1.00;;;;;;5093453;28;20464;-70
2022/04/28 12:20:54;;;;;;;4.67;3.50;;;24.70;1.00;;;;;;5096680;28;20413;-69
2022/04/28 12:23:30;;;;;;;6.03;2.87;;;23.40;1.00;;;;;;5112632;28;20458;-64
2022/04/28 12:26:14;;;;;;;4.40;3.20;;;23.70;1.00;;;;;;5109354;28;20648;-65
2022/04/28 12:28:44;;;;;;;3.70;3.40;;;24.10;1.00;;;;;;5108211;28;20813;-68
2022/04/28 12:31:15;;;;;;;2.63;2.10;;;24.40;1.00;;;;;;5106139;28;20415;-70
2022/04/28 12:33:42;;;;;;;3.27;2.30;;;24.50;1.00;;;;;;5099581;28;20462;-68
2022/04/28 12:36:16;;;;;;;1.67;1.57;;;24.20;1.00;;;;;;5096242;28;20430;-69
2022/04/28 12:38:46;;;;;;;1.70;1.60;;;24.20;1.00;;;;;;5105042;28;20419;-69
2022/04/28 12:41:23;;;;;;;6.53;1.53;;;23.20;1.00;;;;;;5115651;28;20411;-69
2022/04/28 12:43:51;;;;;;;1.57;1.47;;;22.30;1.00;;;;;;5116004;28;20426;-69
2022/04/28 12:46:24;;;;;;;1.60;1.30;;;22.00;1.00;;;;;;5116648;28;20403;-69
2022/04/28 12:48:54;;;;;;;1.47;1.30;;;21.80;1.00;;;;;;5099534;28;20406;-65
2022/04/28 12:51:26;;;;;;;1.60;1.50;;;21.80;1.00;;;;;;5101304;28;20422;-69
2022/04/28 12:53:56;;;;;;;1.60;1.20;;;21.70;1.00;;;;;;5112560;28;20501;-69
2022/04/28 12:56:32;;;;;;;4.10;1.53;;;21.50;1.00;;;;;;5116549;28;20485;-69
2022/04/28 12:59:00;;;;;;;4.63;1.47;;;21.70;1.00;;;;;;5099142;28;20431;-69
2022/04/28 13:01:27;;;;;;;2.10;1.07;;;22.20;1.00;;;;;;5096089;28;20964;-69
2022/04/28 13:03:55;;;;;;;1.70;1.10;;;22.10;1.00;;;;;;5115104;28;20772;-66
2022/04/28 13:06:25;;;;;;;4.30;1.73;;;22.00;1.00;;;;;;5115472;28;20419;-69
2022/04/28 13:08:52;;;;;;;3.33;1.33;;;22.10;1.00;;;;;;5100093;28;20745;-66
2022/04/28 13:11:20;;;;;;;1.87;0.93;;;22.60;1.00;;;;;;5116053;28;20942;-67
2022/04/28 13:13:46;;;;;;;3.43;1.30;;;22.70;1.00;;;;;;5114967;28;20439;-68
2022/04/28 13:16:12;;;;;;;2.33;1.20;;;22.70;1.00;;;;;;5115801;28;20487;-68
2022/04/28 13:18:38;;;;;;;1.57;1.00;;;22.70;1.00;;;;;;5114928;28;20165;-70
2022/04/28 13:21:03;;;;;;;3.10;1.13;;;22.50;1.00;;;;;;5115707;28;20794;-65
2022/04/28 13:23:29;;;;;;;1.57;1.20;;;22.60;1.00;;;;;;5115895;28;20248;-69
2022/04/28 13:25:55;;;;;;;1.60;1.00;;;22.70;1.00;;;;;;5115775;28;20610;-67
2022/04/28 13:28:20;;;;;;;2.27;0.80;;;23.20;1.00;;;;;;5115581;28;20173;-69
2022/04/28 13:30:46;;;;;;;2.43;1.17;;;24.00;1.00;;;;;;5114176;28;20263;-66